createdAt,value
2018-06-11T00:00:42.464Z,23.90
2018-06-11T00:01:42.427Z,24.10
2018-06-11T00:02:42.398Z,24.30
2018-06-11T00:03:42.360Z,24.40
2018-06-11T00:04:42.332Z,25.60
2018-06-11T00:05:42.300Z,24.60
2018-06-11T00:06:42.265Z,24.60
2018-06-11T00:07:42.239Z,25.10
2018-06-11T00:08:42.207Z,25.00
2018-06-11T00:09:42.175Z,24.80
2018-06-11T00:10:42.144Z,25.60
2018-06-11T00:11:42.103Z,25.90
2018-06-11T00:12:42.080Z,25.20
2018-06-11T00:13:42.047Z,26.40
2018-06-11T00:14:42.017Z,25.40
2018-06-11T00:15:41.976Z,26.40
2018-06-11T00:16:41.949Z,25.70
2018-06-11T00:17:41.919Z,26.10
2018-06-11T00:18:41.886Z,26.30
2018-06-11T00:19:41.857Z,27.20
2018-06-11T00:20:41.826Z,25.40
2018-06-11T00:21:41.792Z,26.30
2018-06-11T00:22:41.764Z,27.50
2018-06-11T00:23:41.725Z,27.10
2018-06-11T00:24:41.696Z,26.90
2018-06-11T00:25:41.663Z,27.40
2018-06-11T00:26:41.629Z,27.30
2018-06-11T00:27:41.606Z,27.80
2018-06-11T00:28:41.572Z,27.60
2018-06-11T00:29:41.536Z,27.40
2018-06-11T00:30:41.501Z,27.30
2018-06-11T00:31:41.477Z,27.60
2018-06-11T00:32:41.443Z,28.20
2018-06-11T00:33:41.413Z,28.20
2018-06-11T00:34:41.391Z,27.20
2018-06-11T00:35:41.344Z,28.20
2018-06-11T00:36:41.315Z,27.90
2018-06-11T00:37:41.282Z,28.90
2018-06-11T00:38:41.250Z,29.00
2018-06-11T00:39:41.227Z,28.80
2018-06-11T00:40:41.193Z,28.40
2018-06-11T00:41:41.158Z,29.40
2018-06-11T00:42:41.128Z,28.30
2018-06-11T00:43:41.091Z,29.00
2018-06-11T00:44:41.058Z,28.10
2018-06-11T00:45:41.030Z,29.60
2018-06-11T00:46:40.999Z,30.00
2018-06-11T00:47:40.962Z,29.60
2018-06-11T00:48:40.931Z,29.00
2018-06-11T00:49:40.899Z,29.20
2018-06-11T00:50:40.868Z,29.00
2018-06-11T00:51:40.837Z,29.90
2018-06-11T00:52:40.806Z,30.30
2018-06-11T00:53:40.772Z,29.50
2018-06-11T00:54:40.740Z,29.60
2018-06-11T00:55:40.709Z,29.40
2018-06-11T00:56:40.680Z,28.80
2018-06-11T00:57:40.650Z,29.90
2018-06-11T00:58:40.615Z,31.80
2018-06-11T00:59:40.581Z,30.30
2018-06-11T01:00:40.551Z,30.70
2018-06-11T01:01:40.518Z,30.60
2018-06-11T01:02:40.485Z,32.20
2018-06-11T01:03:40.452Z,32.10
2018-06-11T01:04:40.424Z,32.10
2018-06-11T01:05:40.393Z,30.50
2018-06-11T01:06:40.357Z,32.00
2018-06-11T01:07:40.331Z,32.70
2018-06-11T01:08:40.297Z,32.40
2018-06-11T01:09:40.266Z,31.60
2018-06-11T01:10:40.227Z,32.80
2018-06-11T01:11:40.199Z,32.40
2018-06-11T01:12:40.164Z,32.10
2018-06-11T01:13:40.129Z,32.50
2018-06-11T01:14:40.100Z,33.40
2018-06-11T01:15:40.070Z,32.50
2018-06-11T01:16:40.040Z,33.60
2018-06-11T01:17:40.000Z,33.30
2018-06-11T01:18:39.970Z,33.10
2018-06-11T01:19:39.939Z,33.60
2018-06-11T01:20:39.910Z,33.30
2018-06-11T01:21:39.877Z,33.80
2018-06-11T01:22:39.847Z,34.30
2018-06-11T01:23:39.816Z,33.20
2018-06-11T01:24:39.781Z,33.20
2018-06-11T01:25:39.747Z,32.90
2018-06-11T01:26:39.714Z,33.00
2018-06-11T01:27:39.683Z,34.00
2018-06-11T01:28:39.656Z,33.30
2018-06-11T01:29:39.619Z,34.10
2018-06-11T01:30:39.585Z,33.30
2018-06-11T01:31:39.552Z,33.30
2018-06-11T01:32:39.516Z,34.20
2018-06-11T01:33:39.489Z,33.00
2018-06-11T01:34:39.455Z,33.30
2018-06-11T01:35:39.421Z,32.70
2018-06-11T01:36:39.385Z,34.30
2018-06-11T01:37:39.357Z,33.90
2018-06-11T01:38:39.324Z,33.60
2018-06-11T01:39:39.293Z,33.40
2018-06-11T01:40:39.269Z,34.20
2018-06-11T01:41:39.229Z,34.40
2018-06-11T01:42:39.198Z,34.90
2018-06-11T01:43:39.164Z,34.20
2018-06-11T01:44:39.129Z,34.20
2018-06-11T01:45:39.097Z,33.90
2018-06-11T01:46:39.066Z,34.90
2018-06-11T01:47:39.040Z,36.20
2018-06-11T01:48:39.006Z,35.30
2018-06-11T01:49:38.967Z,35.90
2018-06-11T01:50:38.941Z,35.70
2018-06-11T01:51:38.910Z,35.50
2018-06-11T01:52:38.878Z,36.70
2018-06-11T01:53:38.842Z,35.50
2018-06-11T01:54:38.814Z,36.50
2018-06-11T01:55:38.776Z,35.20
2018-06-11T01:56:38.752Z,36.10
2018-06-11T01:57:38.708Z,37.30
2018-06-11T01:58:38.678Z,36.30
2018-06-11T01:59:38.654Z,36.40
2018-06-11T02:00:38.615Z,34.90
2018-06-11T02:01:38.582Z,36.50
2018-06-11T02:02:38.552Z,35.90
2018-06-11T02:03:38.515Z,36.50
2018-06-11T02:04:38.479Z,36.10
2018-06-11T02:05:38.458Z,37.00
2018-06-11T02:06:38.426Z,36.90
2018-06-11T02:07:38.386Z,35.60
2018-06-11T02:08:38.349Z,35.60
2018-06-11T02:09:38.350Z,37.10
2018-06-11T02:10:38.300Z,36.60
2018-06-11T02:11:38.259Z,36.30
2018-06-11T02:12:38.226Z,36.00
2018-06-11T02:13:38.193Z,36.40
2018-06-11T02:14:38.158Z,35.60
2018-06-11T02:15:38.129Z,38.10
2018-06-11T02:16:38.090Z,37.20
2018-06-11T02:17:38.059Z,37.20
2018-06-11T02:18:38.030Z,37.90
2018-06-11T02:19:37.996Z,37.40
2018-06-11T02:20:37.967Z,37.70
2018-06-11T02:21:37.926Z,37.50
2018-06-11T02:22:37.896Z,37.60
2018-06-11T02:23:37.866Z,39.30
2018-06-11T02:24:37.836Z,38.70
2018-06-11T02:25:37.805Z,39.50
2018-06-11T02:26:37.768Z,38.40
2018-06-11T02:27:37.732Z,38.30
2018-06-11T02:28:37.699Z,37.90
2018-06-11T02:29:37.667Z,38.10
2018-06-11T02:30:37.637Z,37.90
2018-06-11T02:31:37.604Z,37.10
2018-06-11T02:32:37.575Z,37.60
2018-06-11T02:33:37.545Z,38.20
2018-06-11T02:34:37.508Z,37.90
2018-06-11T02:35:37.472Z,36.90
2018-06-11T02:36:37.438Z,39.00
2018-06-11T02:37:37.419Z,36.80
2018-06-11T02:38:37.378Z,37.70
2018-06-11T02:39:37.347Z,38.50
2018-06-11T02:40:37.314Z,36.80
2018-06-11T02:41:37.276Z,38.60
2018-06-11T02:42:37.251Z,39.00
2018-06-11T02:43:37.213Z,39.30
2018-06-11T02:44:37.190Z,39.20
2018-06-11T02:45:37.155Z,39.30
2018-06-11T02:46:37.120Z,38.50
2018-06-11T02:47:37.084Z,37.60
2018-06-11T02:48:37.052Z,39.60
2018-06-11T02:49:37.013Z,38.80
2018-06-11T02:50:36.986Z,38.60
2018-06-11T02:51:36.957Z,39.20
2018-06-11T02:52:36.929Z,40.70
2018-06-11T02:53:36.887Z,39.60
2018-06-11T02:54:36.859Z,39.20
2018-06-11T02:55:36.828Z,40.10
2018-06-11T02:56:36.796Z,40.10
2018-06-11T02:57:36.763Z,40.50
2018-06-11T02:58:36.727Z,40.20
2018-06-11T02:59:36.696Z,39.80
2018-06-11T03:00:36.658Z,39.60
2018-06-11T03:01:36.626Z,40.30
2018-06-11T03:02:36.597Z,41.10
2018-06-11T03:03:36.614Z,39.40
2018-06-11T03:04:36.533Z,39.20
2018-06-11T03:05:36.503Z,40.70
2018-06-11T03:06:36.468Z,41.00
2018-06-11T03:07:36.435Z,41.50
2018-06-11T03:08:36.400Z,41.40
2018-06-11T03:09:36.371Z,42.30
2018-06-11T03:10:36.339Z,40.20
2018-06-11T03:11:36.306Z,41.30
2018-06-11T03:12:36.269Z,40.60
2018-06-11T03:13:36.235Z,42.90
2018-06-11T03:14:36.206Z,41.50
2018-06-11T03:15:36.232Z,42.60
2018-06-11T03:16:36.146Z,42.20
2018-06-11T03:17:36.114Z,42.20
2018-06-11T03:18:36.077Z,41.50
2018-06-11T03:19:36.045Z,42.80
2018-06-11T03:20:36.010Z,42.80
2018-06-11T03:21:35.974Z,42.40
2018-06-11T03:22:35.944Z,41.50
2018-06-11T03:23:35.917Z,41.00
2018-06-11T03:24:35.892Z,41.30
2018-06-11T03:25:35.846Z,41.60
2018-06-11T03:26:35.815Z,42.00
2018-06-11T03:27:35.783Z,42.40
2018-06-11T03:28:35.752Z,41.60
2018-06-11T03:29:35.721Z,43.30
2018-06-11T03:30:35.686Z,43.20
2018-06-11T03:31:35.654Z,42.90
2018-06-11T03:32:35.619Z,42.70
2018-06-11T03:33:35.585Z,43.50
2018-06-11T03:34:35.553Z,42.70
2018-06-11T03:35:35.523Z,42.20
2018-06-11T03:36:35.502Z,41.40
2018-06-11T03:37:35.462Z,42.10
2018-06-11T03:38:35.428Z,42.30
2018-06-11T03:39:35.393Z,41.70
2018-06-11T03:40:35.357Z,41.50
2018-06-11T03:41:35.328Z,41.70
2018-06-11T03:42:35.299Z,41.10
2018-06-11T03:43:35.260Z,42.80
2018-06-11T03:44:35.224Z,41.80
2018-06-11T03:45:35.194Z,42.10
2018-06-11T03:46:35.162Z,43.40
2018-06-11T03:47:35.131Z,43.30
2018-06-11T03:48:35.098Z,42.70
2018-06-11T03:49:35.074Z,42.30
2018-06-11T03:50:35.033Z,43.80
2018-06-11T03:51:34.997Z,44.70
2018-06-11T03:52:34.961Z,44.80
2018-06-11T03:53:34.928Z,44.20
2018-06-11T04:07:28.532Z,33.00
2018-06-11T04:08:28.461Z,43.20
2018-06-11T04:09:28.417Z,45.40
2018-06-11T04:10:28.380Z,44.30
2018-06-11T04:11:28.351Z,46.20
2018-06-11T04:12:28.311Z,46.50
2018-06-11T04:13:28.277Z,46.20
2018-06-11T04:14:28.233Z,48.00
2018-06-11T04:15:28.203Z,46.60
2018-06-11T04:16:28.176Z,45.30
2018-06-11T04:17:28.133Z,45.20
2018-06-11T04:18:28.099Z,45.30
2018-06-11T04:19:28.112Z,44.90
2018-06-11T04:20:28.033Z,45.10
2018-06-11T04:21:28.005Z,46.00
2018-06-11T04:22:27.952Z,44.80
2018-06-11T04:23:27.926Z,45.10
2018-06-11T04:24:27.891Z,43.40
2018-06-11T04:25:27.860Z,44.50
2018-06-11T04:26:27.830Z,44.50
2018-06-11T04:27:27.791Z,44.20
2018-06-11T04:28:27.758Z,45.50
2018-06-11T04:29:27.724Z,45.40
2018-06-11T04:30:27.727Z,46.00
2018-06-11T04:31:27.657Z,45.70
2018-06-11T04:32:27.621Z,46.50
2018-06-11T04:33:27.588Z,48.00
2018-06-11T04:34:27.553Z,48.10
2018-06-11T04:35:27.525Z,47.30
2018-06-11T04:36:27.487Z,47.60
2018-06-11T04:37:27.457Z,47.00
2018-06-11T04:38:27.422Z,47.60
2018-06-11T04:39:27.391Z,47.20
2018-06-11T04:40:27.355Z,46.90
2018-06-11T04:41:27.325Z,48.00
2018-06-11T04:42:27.283Z,47.80
2018-06-11T04:43:27.255Z,46.40
2018-06-11T04:44:27.222Z,45.60
2018-06-11T04:45:27.187Z,46.00
2018-06-11T04:46:27.158Z,47.30
2018-06-11T04:47:27.134Z,48.50
2018-06-11T04:48:27.086Z,46.60
2018-06-11T04:49:27.054Z,46.30
2018-06-11T04:50:27.028Z,48.50
2018-06-11T04:51:26.997Z,47.20
2018-06-11T04:52:26.973Z,47.40
2018-06-11T04:53:26.920Z,47.40
2018-06-11T04:54:26.883Z,47.40
2018-06-11T04:55:26.851Z,45.70
2018-06-11T04:56:26.819Z,46.10
2018-06-11T04:57:26.791Z,47.90
2018-06-11T04:58:26.757Z,48.40
2018-06-11T04:59:26.720Z,50.10
2018-06-11T05:00:26.687Z,50.10
2018-06-11T05:01:26.654Z,49.50
2018-06-11T05:02:26.628Z,46.60
2018-06-11T05:03:26.589Z,46.60
2018-06-11T05:04:26.555Z,46.50
2018-06-11T05:05:26.523Z,46.50
2018-06-11T05:06:26.483Z,47.10
2018-06-11T05:07:26.450Z,47.10
2018-06-11T05:08:26.417Z,46.30
2018-06-11T05:09:26.392Z,46.30
2018-06-11T05:10:26.355Z,45.80
2018-06-11T05:11:26.323Z,46.10
2018-06-11T05:12:26.288Z,46.20
2018-06-11T05:13:26.254Z,47.30
2018-06-11T05:14:26.221Z,46.40
2018-06-11T05:15:26.189Z,49.10
2018-06-11T05:16:26.155Z,46.60
2018-06-11T05:17:26.119Z,47.00
2018-06-11T05:18:26.087Z,45.80
2018-06-11T05:19:26.055Z,45.60
2018-06-11T05:20:26.035Z,47.10
2018-06-11T05:21:25.988Z,45.30
2018-06-11T05:22:25.959Z,44.20
2018-06-11T05:23:25.923Z,44.70
2018-06-11T05:24:25.893Z,44.10
2018-06-11T05:25:25.851Z,43.70
2018-06-11T05:26:25.817Z,45.10
2018-06-11T05:27:25.786Z,45.50
2018-06-11T05:28:25.753Z,46.30
2018-06-11T05:29:25.723Z,46.70
2018-06-11T05:30:25.691Z,44.70
2018-06-11T05:31:25.656Z,44.00
2018-06-11T05:32:25.623Z,44.60
2018-06-11T05:33:25.588Z,44.60
2018-06-11T05:34:25.558Z,44.70
2018-06-11T05:35:25.523Z,45.20
2018-06-11T05:36:25.489Z,44.20
2018-06-11T05:37:25.454Z,45.20
2018-06-11T05:38:25.419Z,45.00
2018-06-11T05:39:25.384Z,44.60
2018-06-11T05:40:25.365Z,44.50
2018-06-11T05:41:25.324Z,45.00
2018-06-11T05:42:25.290Z,44.30
2018-06-11T05:43:25.256Z,42.80
2018-06-11T05:44:25.221Z,44.10
2018-06-11T05:45:25.186Z,44.70
2018-06-11T05:46:25.153Z,45.70
2018-06-11T05:47:25.126Z,45.20
2018-06-11T05:48:25.089Z,45.90
2018-06-11T05:49:25.052Z,45.50
2018-06-11T05:50:25.020Z,45.00
2018-06-11T05:51:24.981Z,43.00
2018-06-11T05:52:24.951Z,42.60
2018-06-11T05:53:24.923Z,44.10
2018-06-11T05:54:24.889Z,44.40
2018-06-11T05:55:24.862Z,45.00
2018-06-11T05:56:24.820Z,44.00
2018-06-11T05:57:24.789Z,44.50
2018-06-11T05:58:24.752Z,44.30
2018-06-11T05:59:24.716Z,44.70
2018-06-11T06:00:24.683Z,46.80
2018-06-11T06:01:24.655Z,45.10
2018-06-11T06:02:24.621Z,45.00
2018-06-11T06:03:24.581Z,45.30
2018-06-11T06:04:24.556Z,46.90
2018-06-11T06:05:24.522Z,46.30
2018-06-11T06:06:24.489Z,46.40
2018-06-11T06:07:24.456Z,46.90
2018-06-11T06:08:24.421Z,45.40
2018-06-11T06:09:24.387Z,45.50
2018-06-11T06:10:24.348Z,45.80
2018-06-11T06:11:24.318Z,45.30
2018-06-11T06:12:24.287Z,46.20
2018-06-11T06:13:24.259Z,46.10
2018-06-11T06:14:24.223Z,47.60
2018-06-11T06:15:24.190Z,53.40
2018-06-11T06:16:24.157Z,54.30
2018-06-11T06:17:24.120Z,52.90
2018-06-11T06:18:24.082Z,54.40
2018-06-11T06:19:24.058Z,52.20
2018-06-11T06:20:24.024Z,52.10
2018-06-11T06:21:24.018Z,48.80
2018-06-11T06:22:23.956Z,48.50
2018-06-11T06:23:23.918Z,49.90
2018-06-11T06:24:23.888Z,47.40
2018-06-11T06:25:23.857Z,50.70
2018-06-11T06:26:23.838Z,53.30
2018-06-11T06:27:23.793Z,52.80
2018-06-11T06:28:23.758Z,53.10
2018-06-11T06:29:23.724Z,51.10
2018-06-11T06:30:23.689Z,53.60
2018-06-11T06:31:23.657Z,54.40
2018-06-11T06:32:23.622Z,56.60
2018-06-11T06:33:23.593Z,55.50
2018-06-11T06:34:23.616Z,54.60
2018-06-11T06:35:23.523Z,53.60
2018-06-11T06:36:23.494Z,53.80
2018-06-11T06:37:23.463Z,55.60
2018-06-11T06:38:23.431Z,57.60
2018-06-11T06:39:23.397Z,55.10
2018-06-11T06:40:23.362Z,53.60
2018-06-11T06:41:23.327Z,55.60
2018-06-11T06:42:23.292Z,56.60
2018-06-11T06:43:23.267Z,56.10
2018-06-11T06:44:23.231Z,56.80
2018-06-11T06:45:23.196Z,58.10
2018-06-11T06:46:23.163Z,58.00
2018-06-11T06:47:23.130Z,58.70
2018-06-11T06:48:23.091Z,58.00
2018-06-11T06:49:23.067Z,57.60
2018-06-11T06:50:23.034Z,58.40
2018-06-11T06:51:22.999Z,58.00
2018-06-11T06:52:22.964Z,58.20
2018-06-11T06:53:22.934Z,59.00
2018-06-11T06:54:22.902Z,55.80
2018-06-11T06:55:22.871Z,58.20
2018-06-11T06:56:22.836Z,57.80
2018-06-11T06:57:22.797Z,56.70
2018-06-11T06:58:22.769Z,58.40
2018-06-11T06:59:22.735Z,56.70
2018-06-11T07:00:22.697Z,59.00
2018-06-11T07:01:22.673Z,57.80
2018-06-11T07:02:22.646Z,59.40
2018-06-11T07:03:22.607Z,58.90
2018-06-11T07:04:22.573Z,58.10
2018-06-11T07:05:22.536Z,59.40
2018-06-11T07:06:22.505Z,58.00
2018-06-11T07:07:22.475Z,57.00
2018-06-11T07:08:22.447Z,58.70
2018-06-11T07:09:22.401Z,58.50
2018-06-11T07:10:22.377Z,59.90
2018-06-11T07:11:22.341Z,60.90
2018-06-11T07:12:22.306Z,60.10
2018-06-11T07:13:22.280Z,61.60
2018-06-11T07:14:22.246Z,62.20
2018-06-11T07:15:22.213Z,60.70
2018-06-11T07:16:22.181Z,60.40
2018-06-11T07:17:22.141Z,59.50
2018-06-11T07:18:22.112Z,61.50
2018-06-11T07:19:22.081Z,61.90
2018-06-11T07:20:22.043Z,61.70
2018-06-11T07:21:22.020Z,61.30
2018-06-11T07:22:21.985Z,62.60
2018-06-11T07:23:21.950Z,60.70
2018-06-11T07:24:21.914Z,60.50
2018-06-11T07:25:21.890Z,58.70
2018-06-11T07:26:21.853Z,61.10
2018-06-11T07:27:21.823Z,63.20
2018-06-11T07:28:21.788Z,61.80
2018-06-11T07:29:21.748Z,60.40
2018-06-11T07:30:21.725Z,61.70
2018-06-11T07:31:21.716Z,60.90
2018-06-11T07:32:21.653Z,60.70
2018-06-11T07:33:21.625Z,63.30
2018-06-11T07:34:21.592Z,61.10
2018-06-11T07:35:21.557Z,60.50
2018-06-11T07:36:21.526Z,61.70
2018-06-11T07:37:21.489Z,61.90
2018-06-11T07:38:21.458Z,61.60
2018-06-11T07:39:21.428Z,61.70
2018-06-11T07:40:21.395Z,61.10
2018-06-11T07:41:21.359Z,62.00
2018-06-11T07:42:21.328Z,63.20
2018-06-11T07:43:21.293Z,60.80
2018-06-11T07:44:21.259Z,61.10
2018-06-11T07:45:21.233Z,61.70
2018-06-11T07:46:21.199Z,61.00
2018-06-11T07:47:21.166Z,60.30
2018-06-11T07:48:21.134Z,60.60
2018-06-11T07:49:21.093Z,59.30
2018-06-11T07:50:21.066Z,62.40
2018-06-11T07:51:21.033Z,60.50
2018-06-11T07:52:20.996Z,60.20
2018-06-11T07:53:20.972Z,59.00
2018-06-11T07:54:20.940Z,58.90
2018-06-11T07:55:20.905Z,59.60
2018-06-11T07:56:20.867Z,58.70
2018-06-11T07:57:20.869Z,59.10
2018-06-11T07:58:20.809Z,60.40
2018-06-11T07:59:20.772Z,59.50
2018-06-11T08:00:20.753Z,59.20
2018-06-11T08:01:20.719Z,59.50
2018-06-11T08:02:20.676Z,60.10
2018-06-11T08:03:20.652Z,62.00
2018-06-11T08:04:20.608Z,63.90
2018-06-11T08:05:20.600Z,64.90
2018-06-11T08:06:20.545Z,63.20
2018-06-11T08:07:20.514Z,65.10
2018-06-11T08:08:20.479Z,62.30
2018-06-11T08:09:20.441Z,64.40
2018-06-11T08:10:20.418Z,63.70
2018-06-11T08:11:20.381Z,62.40
2018-06-11T08:12:20.348Z,63.20
2018-06-11T08:13:20.336Z,60.30
2018-06-11T08:14:20.280Z,61.00
2018-06-11T08:15:20.295Z,58.90
2018-06-11T08:16:20.273Z,58.20
2018-06-11T08:17:20.192Z,59.30
2018-06-11T08:18:20.153Z,59.40
2018-06-11T08:19:20.197Z,58.80
2018-06-11T08:20:20.163Z,60.40
2018-06-11T08:21:20.050Z,61.90
2018-06-11T08:22:20.019Z,59.10
2018-06-11T08:23:19.988Z,59.00
2018-06-11T08:24:19.947Z,60.10
2018-06-11T08:25:19.922Z,60.50
2018-06-11T08:26:19.892Z,60.90
2018-06-11T08:27:19.962Z,59.20
2018-06-11T08:28:19.823Z,59.80
2018-06-11T08:29:19.795Z,58.90
2018-06-11T08:30:19.813Z,60.70
2018-06-11T08:31:19.732Z,59.20
2018-06-11T08:32:19.723Z,60.50
2018-06-11T08:33:19.762Z,60.20
2018-06-11T08:34:19.626Z,59.20
2018-06-11T08:35:19.660Z,60.80
2018-06-11T08:36:19.563Z,61.50
2018-06-11T08:37:19.543Z,59.90
2018-06-11T08:38:19.504Z,59.20
2018-06-11T08:39:19.466Z,59.60
2018-06-11T08:40:19.435Z,58.60
2018-06-11T08:41:19.440Z,59.10
2018-06-11T08:42:19.407Z,58.50
2018-06-11T08:43:19.474Z,57.30
2018-06-11T08:44:19.314Z,59.20
2018-06-11T08:45:19.268Z,58.70
2018-06-11T08:46:19.239Z,59.80
2018-06-11T08:47:19.204Z,58.90
2018-06-11T08:48:19.167Z,60.00
2018-06-11T08:49:19.142Z,59.60
2018-06-11T08:50:19.187Z,59.20
2018-06-11T08:51:19.076Z,61.00
2018-06-11T08:52:19.046Z,61.90
2018-06-11T08:53:19.005Z,59.80
2018-06-11T08:54:19.092Z,60.90
2018-06-11T08:55:18.949Z,62.00
2018-06-11T08:56:18.908Z,60.50
2018-06-11T08:57:18.888Z,63.30
2018-06-11T08:58:18.848Z,64.20
2018-06-11T08:59:18.825Z,63.20
2018-06-11T09:00:18.931Z,63.20
2018-06-11T09:01:19.368Z,63.40
2018-06-11T09:02:18.722Z,62.40
2018-06-11T09:03:18.885Z,59.40
2018-06-11T09:04:18.656Z,60.30
2018-06-11T09:05:18.617Z,58.40
2018-06-11T09:06:18.587Z,59.20
2018-06-11T09:07:18.556Z,59.00
2018-06-11T09:08:18.538Z,58.10
2018-06-11T09:09:18.495Z,58.80
2018-06-11T09:10:18.492Z,59.50
2018-06-11T09:11:18.449Z,59.10
2018-06-11T09:12:18.557Z,57.50
2018-06-11T09:13:18.358Z,57.60
2018-06-11T09:14:18.330Z,57.70
2018-06-11T09:15:18.304Z,53.70
2018-06-11T09:16:18.269Z,54.60
2018-06-11T09:17:18.230Z,56.60
2018-06-11T09:18:18.218Z,56.00
2018-06-11T09:19:18.166Z,56.90
2018-06-11T09:20:18.133Z,56.90
2018-06-11T09:21:18.109Z,55.70
2018-06-11T09:22:18.073Z,58.10
2018-06-11T09:23:18.040Z,57.70
2018-06-11T09:24:18.163Z,57.40
2018-06-11T09:25:17.977Z,56.70
2018-06-11T09:26:17.941Z,56.40
2018-06-11T09:27:17.916Z,56.60
2018-06-11T09:28:17.907Z,55.70
2018-06-11T09:29:17.856Z,54.40
2018-06-11T09:30:17.816Z,57.60
2018-06-11T09:31:17.845Z,55.40
2018-06-11T09:32:17.748Z,55.90
2018-06-11T09:33:18.693Z,54.80
2018-06-11T09:34:17.689Z,57.30
2018-06-11T09:35:17.655Z,57.90
2018-06-11T09:36:17.702Z,56.50
2018-06-11T09:37:17.634Z,55.60
2018-06-11T09:38:17.672Z,56.00
2018-06-11T09:39:17.534Z,54.50
2018-06-11T09:40:17.491Z,54.60
2018-06-11T09:41:17.473Z,54.10
2018-06-11T09:42:17.465Z,56.00
2018-06-11T09:43:17.401Z,55.40
2018-06-11T09:44:17.463Z,54.80
2018-06-11T09:45:17.336Z,55.00
2018-06-11T09:46:17.301Z,55.00
2018-06-11T09:47:17.269Z,54.60
2018-06-11T09:48:17.239Z,54.30
2018-06-11T09:49:17.263Z,55.00
2018-06-11T09:50:17.520Z,55.80
2018-06-11T09:51:17.729Z,55.50
2018-06-11T09:52:17.108Z,56.20
2018-06-11T09:53:17.081Z,56.00
2018-06-11T09:54:17.050Z,55.50
2018-06-11T09:55:17.012Z,53.60
2018-06-11T09:56:16.980Z,54.40
2018-06-11T09:57:16.943Z,54.90
2018-06-11T09:58:16.913Z,56.10
2018-06-11T09:59:16.911Z,53.20
2018-06-11T10:00:16.843Z,53.90
2018-06-11T10:01:16.819Z,54.80
2018-06-11T10:02:16.785Z,51.90
2018-06-11T10:03:16.790Z,53.20
2018-06-11T10:04:16.718Z,56.40
2018-06-11T10:05:16.695Z,54.30
2018-06-11T10:06:16.658Z,52.30
2018-06-11T10:07:16.625Z,51.70
2018-06-11T10:08:16.630Z,52.60
2018-06-11T10:09:16.559Z,53.30
2018-06-11T10:21:55.966Z,42.60
2018-06-11T10:22:55.499Z,50.40
2018-06-11T10:23:55.467Z,52.20
2018-06-11T10:24:55.491Z,51.00
2018-06-11T10:25:55.389Z,51.50
2018-06-11T10:26:55.354Z,50.70
2018-06-11T10:27:55.344Z,50.00
2018-06-11T10:28:55.286Z,51.10
2018-06-11T10:29:55.258Z,50.40
2018-06-11T10:30:55.221Z,51.40
2018-06-11T10:31:55.201Z,50.40
2018-06-11T10:32:55.155Z,53.10
2018-06-11T10:33:55.119Z,51.00
2018-06-11T10:34:55.094Z,50.50
2018-06-11T10:35:55.050Z,49.70
2018-06-11T10:36:55.024Z,49.40
2018-06-11T10:37:54.989Z,48.20
2018-06-11T10:38:54.965Z,46.90
2018-06-11T10:39:54.926Z,46.40
2018-06-11T10:40:54.895Z,46.40
2018-06-11T10:41:54.859Z,45.90
2018-06-11T10:42:54.829Z,46.40
2018-06-11T10:43:54.796Z,47.10
2018-06-11T10:44:54.763Z,44.10
2018-06-11T10:45:54.734Z,43.70
2018-06-11T10:46:54.693Z,42.50
2018-06-11T10:47:54.669Z,43.40
2018-06-11T10:48:54.633Z,43.50
2018-06-11T10:49:54.605Z,44.20
2018-06-11T10:50:54.569Z,44.00
2018-06-11T10:51:54.539Z,43.30
2018-06-11T10:52:54.523Z,44.50
2018-06-11T10:53:54.476Z,44.50
2018-06-11T10:54:54.443Z,42.80
2018-06-11T10:55:54.442Z,42.80
2018-06-11T10:56:54.382Z,41.30
2018-06-11T10:57:54.377Z,41.80
2018-06-11T10:58:54.318Z,42.30
2018-06-11T10:59:54.284Z,41.90
2018-06-11T11:00:54.253Z,41.30
2018-06-11T11:01:54.233Z,39.90
2018-06-11T11:02:54.199Z,40.40
2018-06-11T11:03:54.171Z,40.00
2018-06-11T11:04:54.129Z,40.00
2018-06-11T11:05:54.104Z,39.20
2018-06-11T11:06:54.066Z,37.60
2018-06-11T11:07:54.035Z,38.40
2018-06-11T11:08:54.004Z,37.60
2018-06-11T11:09:53.973Z,37.30
2018-06-11T11:10:53.947Z,37.10
2018-06-11T11:11:53.912Z,38.90
2018-06-11T11:12:53.879Z,39.90
2018-06-11T11:13:53.850Z,39.50
2018-06-11T11:14:53.823Z,38.30
2018-06-11T11:15:53.790Z,38.10
2018-06-11T11:16:53.760Z,37.50
2018-06-11T11:17:53.725Z,38.50
2018-06-11T11:18:53.693Z,39.40
2018-06-11T11:19:53.665Z,37.50
2018-06-11T11:20:53.640Z,36.90
2018-06-11T11:21:53.636Z,36.70
2018-06-11T11:22:53.580Z,35.70
2018-06-11T11:23:53.554Z,37.20
2018-06-11T11:24:53.520Z,36.00
2018-06-11T11:25:53.478Z,35.50
2018-06-11T11:26:53.450Z,35.00
2018-06-11T11:27:53.420Z,36.20
2018-06-11T11:28:53.402Z,34.20
2018-06-11T11:29:53.360Z,35.10
2018-06-11T11:30:53.324Z,34.20
2018-06-11T11:31:53.306Z,32.20
2018-06-11T11:32:53.269Z,32.20
2018-06-11T11:33:53.238Z,33.10
2018-06-11T11:34:53.214Z,33.50
2018-06-11T11:35:53.177Z,33.10
2018-06-11T11:36:53.149Z,33.10
2018-06-11T11:37:53.112Z,33.00
2018-06-11T11:38:53.079Z,32.90
2018-06-11T11:39:53.058Z,33.20
2018-06-11T11:40:53.026Z,33.20
2018-06-11T11:41:52.994Z,32.20
2018-06-11T11:42:52.968Z,33.50
2018-06-11T11:43:52.934Z,31.50
2018-06-11T11:44:52.905Z,32.30
2018-06-11T11:45:52.868Z,32.60
2018-06-11T11:46:52.845Z,31.40
2018-06-11T11:47:52.814Z,32.10
2018-06-11T11:48:52.777Z,32.30
2018-06-11T11:49:52.760Z,31.70
2018-06-11T11:50:52.714Z,30.60
2018-06-11T11:51:52.682Z,32.30
2018-06-11T11:52:52.652Z,30.60
2018-06-11T11:53:52.623Z,30.20
2018-06-11T11:54:52.598Z,31.40
2018-06-11T11:55:52.571Z,30.80
2018-06-11T11:56:52.533Z,31.10
2018-06-11T11:57:52.512Z,31.70
2018-06-11T11:58:52.465Z,32.00
2018-06-11T11:59:52.443Z,31.00
2018-06-11T12:00:52.446Z,30.80
2018-06-11T12:01:52.377Z,30.90
2018-06-11T12:02:52.345Z,32.10
2018-06-11T12:03:52.314Z,31.50
2018-06-11T12:04:52.288Z,31.00
2018-06-11T12:05:52.255Z,31.10
2018-06-11T12:06:52.230Z,31.10
2018-06-11T12:07:52.202Z,31.10
2018-06-11T12:08:52.166Z,30.60
2018-06-11T12:09:52.130Z,31.10
2018-06-11T12:10:52.130Z,30.40
2018-06-11T12:11:52.080Z,30.10
2018-06-11T12:12:52.050Z,30.90
2018-06-11T12:13:52.037Z,29.40
2018-06-11T12:14:51.985Z,30.00
2018-06-11T12:15:51.946Z,29.50
2018-06-11T12:16:51.921Z,28.10
2018-06-11T12:17:51.890Z,29.60
2018-06-11T12:18:51.861Z,30.80
2018-06-11T12:19:51.828Z,29.20
2018-06-11T12:20:51.800Z,29.20
2018-06-11T12:21:51.771Z,29.20
2018-06-11T12:22:51.732Z,29.20
2018-06-11T12:23:51.702Z,29.80
2018-06-11T12:24:51.673Z,30.70
2018-06-11T12:25:51.650Z,29.20
2018-06-11T12:26:51.624Z,29.50
2018-06-11T12:27:51.611Z,29.30
2018-06-11T12:28:51.553Z,29.80
2018-06-11T12:29:51.519Z,30.10
2018-06-11T12:30:51.491Z,28.40
2018-06-11T12:31:51.464Z,28.00
2018-06-11T12:32:51.433Z,28.40
2018-06-11T12:33:51.398Z,27.80
2018-06-11T12:34:51.366Z,28.00
2018-06-11T12:35:51.333Z,27.10
2018-06-11T12:36:51.333Z,27.00
2018-06-11T12:37:51.277Z,27.30
2018-06-11T12:38:51.250Z,27.80
2018-06-11T12:39:51.219Z,26.30
2018-06-11T12:40:51.188Z,25.70
2018-06-11T12:41:51.155Z,27.00
2018-06-11T12:42:51.119Z,26.80
2018-06-11T12:43:51.090Z,26.00
2018-06-11T12:44:51.061Z,26.20
2018-06-11T12:45:51.044Z,26.10
2018-06-11T12:46:51.005Z,25.90
2018-06-11T12:47:50.986Z,26.10
2018-06-11T12:48:50.947Z,25.70
2018-06-11T12:49:50.914Z,24.00
2018-06-11T12:50:50.883Z,25.50
2018-06-11T12:51:50.852Z,23.60
2018-06-11T12:52:50.888Z,25.30
2018-06-11T12:53:50.783Z,25.00
2018-06-11T12:54:50.750Z,24.30
2018-06-11T12:55:50.719Z,24.30
2018-06-11T12:56:50.692Z,24.30
2018-06-11T12:57:50.663Z,24.20
2018-06-11T12:58:50.636Z,24.00
2018-06-11T12:59:50.602Z,23.60
2018-06-11T13:00:50.573Z,23.80
2018-06-11T13:01:50.549Z,23.20
2018-06-11T13:02:50.524Z,22.80
2018-06-11T13:03:50.484Z,22.40
2018-06-11T13:04:50.450Z,22.70
2018-06-11T13:05:50.419Z,22.80
2018-06-11T13:06:50.385Z,22.60
2018-06-11T13:07:50.377Z,22.40
2018-06-11T13:08:50.325Z,19.90
2018-06-11T13:09:50.308Z,21.70
2018-06-11T13:10:50.269Z,19.90
2018-06-11T13:11:50.243Z,20.70
2018-06-11T13:12:50.207Z,19.70
2018-06-11T13:13:50.188Z,20.20
2018-06-11T13:14:50.146Z,20.30
2018-06-11T13:15:50.108Z,19.50
2018-06-11T13:16:50.079Z,20.50